createdAt,value
2022-10-08T00:00:44.913Z,1.80
2022-10-08T00:01:44.909Z,1.80
2022-10-08T00:02:45.269Z,1.60
2022-10-08T00:03:44.930Z,1.60
2022-10-08T00:04:44.816Z,1.70
2022-10-08T00:05:44.845Z,1.50
2022-10-08T00:06:44.826Z,1.80
2022-10-08T00:07:44.787Z,1.70
2022-10-08T00:08:44.771Z,1.60
2022-10-08T00:09:44.763Z,1.70
2022-10-08T00:10:44.751Z,1.50
2022-10-08T00:11:44.751Z,1.70
2022-10-08T00:12:45.150Z,1.70
2022-10-08T00:13:44.722Z,1.60
2022-10-08T00:14:44.712Z,1.70
2022-10-08T00:15:44.695Z,1.70
2022-10-08T00:16:44.713Z,1.60
2022-10-08T00:17:44.687Z,1.70
2022-10-08T00:18:44.675Z,1.70
2022-10-08T00:19:44.650Z,1.80
2022-10-08T00:20:44.651Z,1.60
2022-10-08T00:21:44.671Z,1.60
2022-10-08T00:22:45.008Z,1.70
2022-10-08T00:23:44.623Z,1.80
2022-10-08T00:24:44.670Z,1.70
2022-10-08T00:25:44.605Z,1.70
2022-10-08T00:26:44.829Z,1.40
2022-10-08T00:27:44.571Z,1.70
2022-10-08T00:28:44.639Z,1.50
2022-10-08T00:29:44.549Z,1.50
2022-10-08T00:30:44.548Z,1.70
2022-10-08T00:31:44.625Z,1.60
2022-10-08T00:32:45.053Z,1.60
2022-10-08T00:33:44.500Z,1.60
2022-10-08T00:34:44.493Z,1.60
2022-10-08T00:35:44.483Z,1.50
2022-10-08T00:36:44.546Z,1.50
2022-10-08T00:37:44.485Z,1.40
2022-10-08T00:38:44.458Z,1.70
2022-10-08T00:39:44.443Z,1.50
2022-10-08T00:40:44.425Z,1.70
2022-10-08T00:41:44.411Z,1.60
2022-10-08T00:42:44.872Z,1.90
2022-10-08T00:43:44.396Z,1.70
2022-10-08T00:44:44.393Z,1.50
2022-10-08T00:45:44.522Z,1.70
2022-10-08T00:46:44.356Z,1.60
2022-10-08T00:47:44.348Z,1.50
2022-10-08T00:48:44.361Z,1.70
2022-10-08T00:49:44.338Z,1.50
2022-10-08T00:50:44.312Z,1.60
2022-10-08T00:51:44.302Z,1.70
2022-10-08T00:52:44.682Z,1.80
2022-10-08T00:53:44.346Z,1.60
2022-10-08T00:54:44.305Z,1.60
2022-10-08T00:55:44.301Z,1.50
2022-10-08T00:56:44.251Z,1.60
2022-10-08T00:57:44.450Z,1.60
2022-10-08T00:58:44.222Z,1.80
2022-10-08T00:59:44.216Z,1.60
2022-10-08T01:00:44.329Z,1.70
2022-10-08T01:01:44.311Z,1.50
2022-10-08T01:02:44.641Z,1.90
2022-10-08T01:03:44.198Z,1.60
2022-10-08T01:04:44.174Z,1.80
2022-10-08T01:05:44.154Z,1.60
2022-10-08T01:06:44.157Z,1.70
2022-10-08T01:07:44.133Z,1.60
2022-10-08T01:08:44.120Z,1.60
2022-10-08T01:09:44.141Z,1.60
2022-10-08T01:10:44.113Z,1.60
2022-10-08T01:11:44.088Z,1.50
2022-10-08T01:12:44.297Z,1.70
2022-10-08T01:13:44.076Z,1.80
2022-10-08T01:14:44.053Z,1.30
2022-10-08T01:15:44.049Z,1.60
2022-10-08T01:16:44.097Z,1.40
2022-10-08T01:17:44.020Z,1.50
2022-10-08T01:18:44.074Z,1.40
2022-10-08T01:19:44.001Z,1.60
2022-10-08T01:20:43.990Z,1.50
2022-10-08T01:21:43.974Z,1.50
2022-10-08T01:22:44.394Z,1.80
2022-10-08T01:23:43.954Z,1.40
2022-10-08T01:24:44.002Z,1.70
2022-10-08T01:25:43.958Z,1.60
2022-10-08T01:26:43.917Z,1.50
2022-10-08T01:27:43.908Z,1.60
2022-10-08T01:28:44.007Z,1.50
2022-10-08T01:29:43.888Z,1.40
2022-10-08T01:30:43.953Z,1.80
2022-10-08T01:31:43.958Z,1.50
2022-10-08T01:32:44.171Z,1.80
2022-10-08T01:33:43.854Z,1.30
2022-10-08T01:34:43.836Z,1.50
2022-10-08T01:35:43.824Z,1.40
2022-10-08T01:36:43.846Z,1.50
2022-10-08T01:37:43.801Z,1.50
2022-10-08T01:38:43.804Z,1.40
2022-10-08T01:39:43.796Z,1.50
2022-10-08T01:40:43.767Z,1.60
2022-10-08T01:41:43.786Z,1.40
2022-10-08T01:42:43.899Z,1.40
2022-10-08T01:43:43.733Z,1.60
2022-10-08T01:44:43.766Z,1.50
2022-10-08T01:45:43.814Z,1.50
2022-10-08T01:46:43.704Z,1.70
2022-10-08T01:47:43.696Z,1.40
2022-10-08T01:48:43.686Z,1.30
2022-10-08T01:49:43.672Z,1.60
2022-10-08T01:50:43.666Z,1.50
2022-10-08T01:51:43.668Z,1.60
2022-10-08T01:52:43.883Z,1.50
2022-10-08T01:53:43.628Z,1.80
2022-10-08T01:54:43.625Z,1.60
2022-10-08T01:55:43.609Z,1.50
2022-10-08T01:56:43.597Z,1.50
2022-10-08T01:57:43.624Z,1.90
2022-10-08T01:58:43.573Z,1.60
2022-10-08T01:59:43.562Z,1.60
2022-10-08T02:00:43.675Z,1.60
2022-10-08T02:01:43.547Z,1.80
2022-10-08T02:02:43.609Z,1.50
2022-10-08T02:03:43.535Z,1.60
2022-10-08T02:04:43.511Z,1.50
2022-10-08T02:05:43.501Z,1.50
2022-10-08T02:06:43.523Z,1.60
2022-10-08T02:07:43.491Z,1.50
2022-10-08T02:08:43.465Z,1.30
2022-10-08T02:09:43.458Z,1.40
2022-10-08T02:10:43.444Z,1.50
2022-10-08T02:11:43.434Z,1.60
2022-10-08T02:12:43.621Z,1.70
2022-10-08T02:13:43.436Z,1.40
2022-10-08T02:14:43.417Z,1.50
2022-10-08T02:15:43.388Z,1.40
2022-10-08T02:16:43.431Z,1.50
2022-10-08T02:17:43.364Z,1.40
2022-10-08T02:18:43.395Z,1.40
2022-10-08T02:19:43.346Z,1.50
2022-10-08T02:20:43.334Z,1.40
2022-10-08T02:21:43.323Z,1.40
2022-10-08T02:22:43.312Z,1.40
2022-10-08T02:23:43.302Z,1.20
2022-10-08T02:24:43.392Z,1.50
2022-10-08T02:25:43.280Z,1.40
2022-10-08T02:26:43.267Z,1.60
2022-10-08T02:27:43.268Z,1.40
2022-10-08T02:28:43.414Z,1.30
2022-10-08T02:29:43.266Z,1.70
2022-10-08T02:30:43.286Z,1.30
2022-10-08T02:31:43.263Z,1.50
2022-10-08T02:32:43.266Z,1.50
2022-10-08T02:33:43.195Z,1.50
2022-10-08T02:34:43.181Z,1.40
2022-10-08T02:35:43.172Z,1.40
2022-10-08T02:36:43.182Z,1.40
2022-10-08T02:37:43.149Z,1.40
2022-10-08T02:38:43.151Z,1.60
2022-10-08T02:39:43.127Z,1.40
2022-10-08T02:40:43.118Z,1.50
2022-10-08T02:41:43.110Z,1.50
2022-10-08T02:42:43.107Z,1.50
2022-10-08T02:43:43.087Z,1.40
2022-10-08T02:44:43.087Z,1.60
2022-10-08T02:45:43.202Z,1.50
2022-10-08T02:46:43.063Z,1.50
2022-10-08T02:47:43.042Z,1.50
2022-10-08T02:48:43.066Z,1.40
2022-10-08T02:49:43.021Z,1.60
2022-10-08T02:50:43.007Z,1.60
2022-10-08T02:51:43.272Z,1.70
2022-10-08T02:52:43.010Z,1.50
2022-10-08T02:53:42.975Z,1.40
2022-10-08T02:54:43.025Z,1.40
2022-10-08T02:55:42.953Z,1.40
2022-10-08T02:56:42.944Z,1.40
2022-10-08T02:57:42.933Z,1.60
2022-10-08T02:58:43.033Z,1.40
2022-10-08T02:59:42.969Z,1.40
2022-10-08T03:00:42.904Z,1.60
2022-10-08T03:01:42.959Z,1.50
2022-10-08T03:02:42.910Z,1.60
2022-10-08T03:03:42.866Z,1.60
2022-10-08T03:04:42.868Z,1.70
2022-10-08T03:05:42.912Z,1.60
2022-10-08T03:06:42.850Z,1.50
2022-10-08T03:07:42.824Z,1.70
2022-10-08T03:08:42.813Z,1.70
2022-10-08T03:09:42.806Z,1.80
2022-10-08T03:10:42.796Z,1.50
2022-10-08T03:11:42.797Z,1.60
2022-10-08T03:12:42.780Z,1.60
2022-10-08T03:13:42.760Z,1.50
2022-10-08T03:14:42.760Z,1.60
2022-10-08T03:15:42.752Z,1.40
2022-10-08T03:16:42.773Z,1.60
2022-10-08T03:17:42.781Z,1.50
2022-10-08T03:18:42.705Z,1.40
2022-10-08T03:19:42.704Z,1.50
2022-10-08T03:20:42.686Z,1.60
2022-10-08T03:21:42.675Z,1.80
2022-10-08T03:22:42.663Z,1.60
2022-10-08T03:23:42.713Z,1.60
2022-10-08T03:24:42.654Z,1.60
2022-10-08T03:25:42.631Z,1.80
2022-10-08T03:26:42.633Z,1.50
2022-10-08T03:27:42.610Z,1.50
2022-10-08T03:28:42.637Z,1.80
2022-10-08T03:29:42.596Z,1.60
2022-10-08T03:30:42.619Z,1.60
2022-10-08T03:31:42.776Z,1.80
2022-10-08T03:32:42.571Z,1.70
2022-10-08T03:33:42.584Z,1.60
2022-10-08T03:34:42.535Z,1.50
2022-10-08T03:35:42.596Z,1.40
2022-10-08T03:36:42.523Z,1.70
2022-10-08T03:37:42.503Z,1.50
2022-10-08T03:38:42.502Z,1.90
2022-10-08T03:39:42.478Z,1.80
2022-10-08T03:40:42.470Z,1.60
2022-10-08T03:41:42.512Z,1.80
2022-10-08T03:42:42.476Z,1.70
2022-10-08T03:43:42.448Z,1.60
2022-10-08T03:44:42.431Z,1.70
2022-10-08T03:45:42.479Z,1.70
2022-10-08T03:46:42.439Z,1.70
2022-10-08T03:47:42.462Z,1.60
2022-10-08T03:48:42.380Z,1.80
2022-10-08T03:49:42.399Z,1.80
2022-10-08T03:50:42.360Z,1.80
2022-10-08T03:51:42.355Z,1.60
2022-10-08T03:52:42.339Z,1.80
2022-10-08T03:53:42.401Z,1.70
2022-10-08T03:54:42.317Z,1.80
2022-10-08T03:55:42.336Z,1.70
2022-10-08T03:56:42.297Z,1.70
2022-10-08T03:57:42.287Z,1.70
2022-10-08T03:58:42.273Z,1.90
2022-10-08T03:59:42.329Z,1.50
2022-10-08T04:00:42.250Z,1.70
2022-10-08T04:01:42.366Z,2.00
2022-10-08T04:02:42.274Z,1.60
2022-10-08T04:03:42.221Z,1.60
2022-10-08T04:04:42.212Z,1.80
2022-10-08T04:05:42.232Z,1.80
2022-10-08T04:06:42.204Z,1.80
2022-10-08T04:07:42.178Z,1.80
2022-10-08T04:08:42.169Z,1.80
2022-10-08T04:09:42.154Z,1.90
2022-10-08T04:10:42.146Z,1.60
2022-10-08T04:11:42.139Z,1.70
2022-10-08T04:12:42.135Z,1.70
2022-10-08T04:13:42.164Z,1.80
2022-10-08T04:14:42.109Z,2.00
2022-10-08T04:15:42.147Z,1.70
2022-10-08T04:16:42.081Z,1.80
2022-10-08T04:17:42.162Z,1.80
2022-10-08T04:18:42.057Z,1.80
2022-10-08T04:19:42.045Z,1.90
2022-10-08T04:20:42.038Z,1.60
2022-10-08T04:21:42.049Z,1.90
2022-10-08T04:22:42.042Z,2.00
2022-10-08T04:23:42.016Z,1.70
2022-10-08T04:24:41.994Z,1.90
2022-10-08T04:25:42.067Z,1.90
2022-10-08T04:26:41.971Z,1.90
2022-10-08T04:27:41.967Z,1.90
2022-10-08T04:28:42.006Z,1.80
2022-10-08T04:29:41.954Z,1.90
2022-10-08T04:30:41.965Z,1.80
2022-10-08T04:31:41.928Z,1.70
2022-10-08T04:32:41.938Z,2.00
2022-10-08T04:33:41.898Z,1.80
2022-10-08T04:34:41.887Z,1.70
2022-10-08T04:35:41.872Z,1.90
2022-10-08T04:36:41.875Z,1.80
2022-10-08T04:37:41.906Z,1.80
2022-10-08T04:38:41.847Z,1.80
2022-10-08T04:39:41.838Z,1.90
2022-10-08T04:40:41.822Z,1.70
2022-10-08T04:41:42.033Z,1.80
2022-10-08T04:42:41.799Z,1.90
2022-10-08T04:43:41.823Z,2.00
2022-10-08T04:44:41.777Z,1.90
2022-10-08T04:45:41.767Z,1.80
2022-10-08T04:46:41.802Z,1.90
2022-10-08T04:47:41.853Z,1.70
2022-10-08T04:48:41.739Z,1.90
2022-10-08T04:49:41.777Z,1.80
2022-10-08T04:50:41.712Z,1.90
2022-10-08T04:51:41.699Z,1.90
2022-10-08T04:52:41.687Z,1.80
2022-10-08T04:53:41.720Z,1.80
2022-10-08T04:54:41.672Z,1.90
2022-10-08T04:55:41.660Z,1.80
2022-10-08T04:56:41.652Z,2.00
2022-10-08T04:57:41.642Z,2.20
2022-10-08T04:58:41.637Z,1.80
2022-10-08T04:59:59.466Z,1.90
2022-10-08T05:00:42.602Z,2.00
2022-10-08T05:01:41.713Z,1.90
2022-10-08T05:02:41.611Z,1.90
2022-10-08T05:03:41.579Z,1.80
2022-10-08T05:04:41.586Z,1.80
2022-10-08T05:05:41.554Z,2.00
2022-10-08T05:06:41.539Z,1.90
2022-10-08T05:07:41.574Z,1.70
2022-10-08T05:08:41.519Z,1.70
2022-10-08T05:09:41.626Z,1.90
2022-10-08T05:10:41.508Z,1.80
2022-10-08T05:11:41.486Z,1.90
2022-10-08T05:12:41.476Z,1.80
2022-10-08T05:13:41.519Z,1.80
2022-10-08T05:14:41.454Z,2.00
2022-10-08T05:15:41.500Z,1.90
2022-10-08T05:16:41.453Z,1.70
2022-10-08T05:17:41.422Z,2.10
2022-10-08T05:18:41.461Z,1.80
2022-10-08T05:19:41.451Z,1.90
2022-10-08T05:20:41.391Z,1.70
2022-10-08T05:21:41.378Z,2.00
2022-10-08T05:22:41.380Z,2.00
2022-10-08T05:23:41.355Z,1.90
2022-10-08T05:24:41.345Z,2.10
2022-10-08T05:25:41.394Z,2.00
2022-10-08T05:26:58.885Z,1.90
2022-10-08T05:27:42.325Z,2.00
2022-10-08T05:28:41.363Z,1.70
2022-10-08T05:29:41.291Z,2.10
2022-10-08T05:30:41.282Z,1.80
2022-10-08T05:31:41.315Z,1.70
2022-10-08T05:32:41.267Z,2.10
2022-10-08T05:33:41.261Z,1.80
2022-10-08T05:34:41.245Z,1.80
2022-10-08T05:35:41.229Z,1.90
2022-10-08T05:36:41.218Z,2.10
2022-10-08T05:37:41.248Z,1.90
2022-10-08T05:38:41.408Z,1.90
2022-10-08T05:39:41.197Z,1.90
2022-10-08T05:40:41.184Z,2.00
2022-10-08T05:41:41.259Z,1.80
2022-10-08T05:42:41.156Z,2.20
2022-10-08T05:43:41.146Z,2.20
2022-10-08T05:44:45.282Z,2.10
2022-10-08T05:45:41.121Z,2.20
2022-10-08T05:46:41.198Z,2.00
2022-10-08T05:47:41.098Z,2.00
2022-10-08T05:48:41.087Z,2.00
2022-10-08T05:49:41.093Z,2.00
2022-10-08T05:50:41.067Z,1.90
2022-10-08T05:51:41.055Z,1.90
2022-10-08T05:52:41.042Z,1.90
2022-10-08T05:53:41.030Z,1.90
2022-10-08T05:54:41.035Z,1.90
2022-10-08T05:55:41.106Z,2.00
2022-10-08T05:56:41.000Z,2.00
2022-10-08T05:57:41.019Z,1.90
2022-10-08T05:58:40.979Z,2.00
2022-10-08T05:59:40.965Z,2.00
2022-10-08T06:00:40.973Z,1.90
2022-10-08T06:01:41.000Z,1.90
2022-10-08T06:02:41.031Z,1.80
2022-10-08T06:03:40.931Z,1.90
2022-10-08T06:04:40.979Z,2.20
2022-10-08T06:05:40.913Z,2.00
2022-10-08T06:06:40.892Z,1.90
2022-10-08T06:07:40.965Z,2.20
2022-10-08T06:08:40.885Z,2.20
2022-10-08T06:09:40.859Z,2.20
2022-10-08T06:10:40.848Z,2.00
2022-10-08T06:11:40.846Z,2.30
2022-10-08T06:12:40.825Z,2.20
2022-10-08T06:13:40.903Z,2.10
2022-10-08T06:14:40.820Z,1.80
2022-10-08T06:15:40.801Z,2.10
2022-10-08T06:16:40.830Z,1.80
2022-10-08T06:17:40.774Z,1.70
2022-10-08T06:18:40.771Z,1.70
2022-10-08T06:19:40.762Z,1.60
2022-10-08T06:20:40.756Z,1.60
2022-10-08T06:21:40.728Z,1.70
2022-10-08T06:22:40.729Z,1.70
2022-10-08T06:23:40.707Z,1.90
2022-10-08T06:24:40.696Z,2.10
2022-10-08T06:25:40.710Z,2.20
2022-10-08T06:26:40.675Z,1.80
2022-10-08T06:27:40.676Z,1.70
2022-10-08T06:28:40.701Z,1.80
2022-10-08T06:29:40.670Z,1.80
2022-10-08T06:30:40.646Z,1.90
2022-10-08T06:31:40.741Z,2.00
2022-10-08T06:32:40.611Z,1.80
2022-10-08T06:33:40.600Z,1.70
2022-10-08T06:34:40.591Z,1.90
2022-10-08T06:35:40.578Z,1.60
2022-10-08T06:36:40.567Z,1.70
2022-10-08T06:37:40.637Z,2.00
2022-10-08T06:38:40.555Z,1.80
2022-10-08T06:39:43.816Z,1.70
2022-10-08T06:40:41.523Z,1.80
2022-10-08T06:41:40.523Z,1.90
2022-10-08T06:42:40.514Z,1.90
2022-10-08T06:43:40.552Z,1.90
2022-10-08T06:44:40.486Z,1.70
2022-10-08T06:45:40.492Z,1.80
2022-10-08T06:46:40.557Z,1.80
2022-10-08T06:47:40.446Z,2.00
2022-10-08T06:48:40.435Z,1.80
2022-10-08T06:49:40.429Z,2.00
2022-10-08T06:50:40.481Z,1.80
2022-10-08T06:51:40.515Z,2.00
2022-10-08T06:52:40.397Z,1.80
2022-10-08T06:53:40.388Z,1.90
2022-10-08T06:54:40.381Z,2.00
2022-10-08T06:55:40.360Z,2.10
2022-10-08T06:56:40.416Z,1.90
2022-10-08T06:57:40.351Z,2.00
2022-10-08T06:58:40.328Z,1.80
2022-10-08T06:59:40.316Z,1.80
2022-10-08T07:00:40.316Z,1.70
2022-10-08T07:01:40.507Z,1.70
2022-10-08T07:02:40.586Z,2.00
2022-10-08T07:03:40.280Z,1.80
2022-10-08T07:04:40.260Z,2.00
2022-10-08T07:05:40.251Z,1.70
2022-10-08T07:06:40.239Z,1.70
2022-10-08T07:07:40.227Z,1.60
2022-10-08T07:08:40.521Z,1.80
2022-10-08T07:09:40.211Z,2.00
2022-10-08T07:10:40.198Z,1.80
2022-10-08T07:11:40.188Z,1.80
2022-10-08T07:12:40.185Z,1.70
2022-10-08T07:13:40.181Z,1.70
2022-10-08T07:14:40.221Z,2.60
2022-10-08T07:15:40.143Z,1.80
2022-10-08T07:16:40.164Z,1.80
2022-10-08T07:17:40.146Z,2.10
2022-10-08T07:18:40.112Z,2.10
2022-10-08T07:19:40.112Z,1.60
2022-10-08T07:20:40.097Z,2.20
2022-10-08T07:21:40.099Z,2.10
2022-10-08T07:22:40.072Z,1.60
2022-10-08T07:23:40.059Z,1.50
2022-10-08T07:24:40.048Z,1.70
2022-10-08T07:25:40.036Z,1.50
2022-10-08T07:26:40.082Z,1.70
2022-10-08T07:27:44.758Z,1.60
2022-10-08T07:28:41.067Z,1.70
2022-10-08T07:29:39.991Z,1.50
2022-10-08T07:30:39.979Z,1.50
2022-10-08T07:31:40.043Z,1.60
2022-10-08T07:32:40.009Z,1.60
2022-10-08T07:33:40.034Z,1.70
2022-10-08T07:34:39.940Z,1.80
2022-10-08T07:35:39.935Z,1.80
2022-10-08T07:36:39.914Z,1.60
2022-10-08T07:37:39.908Z,1.70
2022-10-08T07:38:39.891Z,1.80
2022-10-08T07:39:39.900Z,1.60
2022-10-08T07:40:39.873Z,1.90
2022-10-08T07:41:40.074Z,1.70
2022-10-08T07:42:39.861Z,1.60
2022-10-08T07:43:39.851Z,1.90
2022-10-08T07:44:39.845Z,1.70
2022-10-08T07:45:39.830Z,1.70
2022-10-08T07:46:39.809Z,1.70
2022-10-08T07:47:39.798Z,1.90
2022-10-08T07:48:39.815Z,1.50
2022-10-08T07:49:39.846Z,1.60
2022-10-08T07:50:39.775Z,1.80
2022-10-08T07:51:39.758Z,1.70
2022-10-08T07:52:39.749Z,1.80
2022-10-08T07:53:39.735Z,1.60
2022-10-08T07:54:39.721Z,1.80
2022-10-08T07:55:39.736Z,1.70
2022-10-08T07:56:39.707Z,1.60
2022-10-08T07:57:39.690Z,1.60
2022-10-08T07:58:39.695Z,1.60
2022-10-08T07:59:39.678Z,1.90
2022-10-08T08:00:39.693Z,1.70
2022-10-08T08:01:39.652Z,1.70
2022-10-08T08:02:39.636Z,1.80
2022-10-08T08:03:39.624Z,1.60
2022-10-08T08:04:39.621Z,1.60
2022-10-08T08:05:39.625Z,1.40
2022-10-08T08:06:39.591Z,1.60
2022-10-08T08:07:39.594Z,1.80
2022-10-08T08:08:39.568Z,1.50
2022-10-08T08:09:39.555Z,1.70
2022-10-08T08:10:39.545Z,1.70
2022-10-08T08:11:39.536Z,1.70
2022-10-08T08:12:39.531Z,1.80
2022-10-08T08:13:39.598Z,1.70
2022-10-08T08:14:39.502Z,1.80
2022-10-08T08:15:39.490Z,1.60
2022-10-08T08:16:39.655Z,1.60
2022-10-08T08:17:39.471Z,1.80
2022-10-08T08:18:39.460Z,1.70
2022-10-08T08:19:39.532Z,1.50
2022-10-08T08:20:39.438Z,1.60
2022-10-08T08:21:39.446Z,1.70
2022-10-08T08:22:39.415Z,2.00
2022-10-08T08:23:39.406Z,1.70
2022-10-08T08:24:39.436Z,1.90
2022-10-08T08:25:39.385Z,2.00
2022-10-08T08:26:39.372Z,1.70
2022-10-08T08:27:39.362Z,1.70
2022-10-08T08:28:39.404Z,1.70
2022-10-08T08:29:39.338Z,1.70
2022-10-08T08:30:39.338Z,1.80
2022-10-08T08:31:39.452Z,1.70
2022-10-08T08:32:39.305Z,1.70
2022-10-08T08:33:39.298Z,1.80
2022-10-08T08:34:39.284Z,1.90
2022-10-08T08:35:39.283Z,1.60
2022-10-08T08:36:39.272Z,1.90
2022-10-08T08:37:39.317Z,1.70
2022-10-08T08:38:39.289Z,1.80
2022-10-08T08:39:39.228Z,1.70
2022-10-08T08:40:39.220Z,1.70
2022-10-08T08:41:39.243Z,1.60
2022-10-08T08:42:39.199Z,1.70
2022-10-08T08:43:39.201Z,1.70
2022-10-08T08:44:39.189Z,1.70
2022-10-08T08:45:46.944Z,1.70
2022-10-08T08:46:40.224Z,1.60
2022-10-08T08:47:39.145Z,1.60
2022-10-08T08:48:39.135Z,1.60
2022-10-08T08:49:39.140Z,1.60
2022-10-08T08:50:39.119Z,1.40
2022-10-08T08:51:39.114Z,1.60
2022-10-08T08:52:39.093Z,1.50
2022-10-08T08:53:39.099Z,1.60
2022-10-08T08:54:39.072Z,1.60
2022-10-08T08:55:39.053Z,1.60
2022-10-08T08:56:39.060Z,1.70
2022-10-08T08:57:39.044Z,1.70
2022-10-08T08:58:39.029Z,1.60
2022-10-08T08:59:39.014Z,1.40
2022-10-08T09:00:39.023Z,1.60
2022-10-08T09:01:39.061Z,1.60
2022-10-08T09:02:39.033Z,1.60
2022-10-08T09:03:38.982Z,1.70
2022-10-08T09:04:44.298Z,1.60
2022-10-08T09:05:40.015Z,1.60
2022-10-08T09:06:38.935Z,1.80
2022-10-08T09:07:38.926Z,1.70
2022-10-08T09:08:38.950Z,1.60
2022-10-08T09:09:38.928Z,1.70
2022-10-08T09:10:38.894Z,1.60
2022-10-08T09:11:38.893Z,1.50
2022-10-08T09:12:38.871Z,1.60
2022-10-08T09:13:38.927Z,1.60
2022-10-08T09:14:38.848Z,1.70
2022-10-08T09:15:38.839Z,1.80
2022-10-08T09:16:38.937Z,1.80
2022-10-08T09:17:38.820Z,1.60
2022-10-08T09:18:38.820Z,1.60
2022-10-08T09:19:38.850Z,1.60
2022-10-08T09:20:40.398Z,1.60
2022-10-08T09:21:38.770Z,1.90
2022-10-08T09:22:38.760Z,1.80
2022-10-08T09:23:38.760Z,1.80
2022-10-08T09:24:38.737Z,1.80
2022-10-08T09:25:38.810Z,1.80
2022-10-08T09:26:38.724Z,1.90
2022-10-08T09:27:38.706Z,1.80
2022-10-08T09:28:38.737Z,1.70
2022-10-08T09:29:38.699Z,1.80
2022-10-08T09:30:38.704Z,1.90
2022-10-08T09:31:38.666Z,1.60
2022-10-08T09:32:38.685Z,1.70
2022-10-08T09:33:38.647Z,2.00
2022-10-08T09:34:38.631Z,2.00
2022-10-08T09:35:38.620Z,1.60
2022-10-08T09:36:38.610Z,1.70
2022-10-08T09:37:38.601Z,2.10
2022-10-08T09:38:38.597Z,1.80
2022-10-08T09:39:38.573Z,1.70
2022-10-08T09:40:38.562Z,2.00
2022-10-08T09:41:38.573Z,1.90
2022-10-08T09:42:38.609Z,2.10
2022-10-08T09:43:38.610Z,2.10
2022-10-08T09:44:38.525Z,1.70
2022-10-08T09:45:38.582Z,2.10
2022-10-08T09:46:38.502Z,1.90
2022-10-08T09:47:38.489Z,2.20
2022-10-08T09:48:38.488Z,2.10
2022-10-08T09:49:38.482Z,2.10
2022-10-08T09:50:38.452Z,2.10
2022-10-08T09:51:38.450Z,2.10
2022-10-08T09:52:38.430Z,2.00
2022-10-08T09:53:38.426Z,2.20
2022-10-08T09:54:38.425Z,2.30
2022-10-08T09:55:38.453Z,2.60
2022-10-08T09:56:38.392Z,2.00
2022-10-08T09:57:43.036Z,2.10
2022-10-08T09:58:39.385Z,2.00
2022-10-08T09:59:38.359Z,2.20
2022-10-08T10:00:38.345Z,2.30
2022-10-08T10:01:38.467Z,2.20
2022-10-08T10:02:38.331Z,2.10
2022-10-08T10:03:38.376Z,2.20
2022-10-08T10:04:38.411Z,2.00
2022-10-08T10:05:38.296Z,2.10
2022-10-08T10:06:38.280Z,2.10
2022-10-08T10:07:38.982Z,2.10
2022-10-08T10:08:38.259Z,1.90
2022-10-08T10:09:38.250Z,1.90
2022-10-08T10:10:38.255Z,2.10
2022-10-08T10:11:38.242Z,2.00
2022-10-08T10:12:38.216Z,2.10
2022-10-08T10:13:38.242Z,2.00
2022-10-08T10:14:38.198Z,2.30
2022-10-08T10:15:38.186Z,2.00
2022-10-08T10:16:38.226Z,2.10
2022-10-08T10:17:38.176Z,2.20
2022-10-08T10:18:38.150Z,2.20
2022-10-08T10:19:38.152Z,2.00
2022-10-08T10:20:38.142Z,2.20
2022-10-08T10:21:38.124Z,2.30
2022-10-08T10:22:38.113Z,2.20
2022-10-08T10:23:38.097Z,2.30
2022-10-08T10:24:38.088Z,2.10
2022-10-08T10:25:38.150Z,2.30
2022-10-08T10:26:38.066Z,2.30
2022-10-08T10:27:38.067Z,2.30
2022-10-08T10:28:38.146Z,2.10
2022-10-08T10:29:38.071Z,2.20
2022-10-08T10:30:38.098Z,2.10
2022-10-08T10:31:38.027Z,2.10
2022-10-08T10:32:38.022Z,2.20
2022-10-08T10:33:37.997Z,2.30
2022-10-08T10:34:37.980Z,2.30
2022-10-08T10:35:37.973Z,2.20
2022-10-08T10:36:37.974Z,2.40
2022-10-08T10:37:37.949Z,2.20
2022-10-08T10:38:42.773Z,2.30
2022-10-08T10:39:38.941Z,2.00
2022-10-08T10:40:37.915Z,2.10
2022-10-08T10:41:37.907Z,2.10
2022-10-08T10:42:37.898Z,2.30
2022-10-08T10:43:37.894Z,2.20
2022-10-08T10:44:37.875Z,2.30
2022-10-08T10:45:37.884Z,2.30
2022-10-08T10:46:37.929Z,2.30
2022-10-08T10:47:37.841Z,2.30
2022-10-08T10:48:37.905Z,2.20
2022-10-08T10:49:37.835Z,2.20
2022-10-08T10:50:37.821Z,2.00
2022-10-08T10:51:37.803Z,2.30
2022-10-08T10:52:37.790Z,2.40
2022-10-08T10:53:37.813Z,2.20
2022-10-08T10:54:37.834Z,2.40
2022-10-08T10:55:37.775Z,2.10
2022-10-08T10:56:37.748Z,2.40
2022-10-08T10:57:37.738Z,2.20
2022-10-08T10:58:37.735Z,2.00
2022-10-08T10:59:37.713Z,2.30
2022-10-08T11:00:37.728Z,2.10
2022-10-08T11:01:37.769Z,2.10
2022-10-08T11:02:37.715Z,2.30
2022-10-08T11:03:37.682Z,2.10
2022-10-08T11:04:37.663Z,2.00
2022-10-08T11:05:37.649Z,2.30
2022-10-08T11:06:37.645Z,2.00
2022-10-08T11:07:37.640Z,2.20
2022-10-08T11:08:37.616Z,2.00
2022-10-08T11:09:37.624Z,2.10
2022-10-08T11:10:37.595Z,2.00
2022-10-08T11:11:37.588Z,2.00
2022-10-08T11:12:37.581Z,2.10
2022-10-08T11:13:37.616Z,2.20
2022-10-08T11:14:37.552Z,2.30
2022-10-08T11:15:37.613Z,2.20
2022-10-08T11:16:37.527Z,2.30
2022-10-08T11:17:37.544Z,2.00
2022-10-08T11:18:37.560Z,2.10
2022-10-08T11:19:37.504Z,2.30
2022-10-08T11:20:37.486Z,2.10
2022-10-08T11:21:37.489Z,2.20
2022-10-08T11:22:37.464Z,2.10
2022-10-08T11:23:37.452Z,2.30
2022-10-08T11:24:37.506Z,2.20
2022-10-08T11:26:02.103Z,2.10
2022-10-08T11:26:38.533Z,2.20
2022-10-08T11:27:37.413Z,2.10
2022-10-08T11:28:37.445Z,2.20
2022-10-08T11:29:37.390Z,2.30
2022-10-08T11:30:37.460Z,2.50
2022-10-08T11:31:37.365Z,2.00
2022-10-08T11:32:37.365Z,2.00
2022-10-08T11:33:37.372Z,2.00
2022-10-08T11:34:37.353Z,2.30
2022-10-08T11:35:37.341Z,2.00
2022-10-08T11:36:37.370Z,2.10
2022-10-08T11:37:37.303Z,2.20
2022-10-08T11:38:37.291Z,2.10
2022-10-08T11:39:37.281Z,2.30
2022-10-08T11:40:37.280Z,2.20
2022-10-08T11:41:37.257Z,2.20
2022-10-08T11:42:48.166Z,2.10
2022-10-08T11:43:38.235Z,2.30
2022-10-08T11:44:37.265Z,2.10
2022-10-08T11:45:37.215Z,2.20
2022-10-08T11:46:37.256Z,2.20
2022-10-08T11:47:37.192Z,2.20
2022-10-08T11:48:37.198Z,2.10
2022-10-08T11:49:37.197Z,2.40
2022-10-08T11:50:37.162Z,2.20
2022-10-08T11:51:37.149Z,2.20
2022-10-08T11:52:37.144Z,2.40
2022-10-08T11:53:37.168Z,2.30
2022-10-08T11:54:37.116Z,2.30
2022-10-08T11:55:37.105Z,2.40
2022-10-08T11:56:37.095Z,2.10
2022-10-08T11:58:06.539Z,2.10
2022-10-08T11:58:38.085Z,2.00
2022-10-08T11:59:37.064Z,2.10
2022-10-08T12:00:37.065Z,2.10
2022-10-08T12:01:37.044Z,2.10
2022-10-08T12:02:37.148Z,2.30
2022-10-08T12:03:37.285Z,2.30
2022-10-08T12:04:37.011Z,2.00
2022-10-08T12:05:37.035Z,2.40
2022-10-08T12:06:37.012Z,2.40
2022-10-08T12:07:36.978Z,2.30
2022-10-08T12:08:36.968Z,2.30
2022-10-08T12:09:36.961Z,2.30
2022-10-08T12:10:36.954Z,2.10
2022-10-08T12:11:36.938Z,2.10
2022-10-08T12:12:37.019Z,2.20
2022-10-08T12:13:36.943Z,2.40
2022-10-08T12:14:36.904Z,2.40
2022-10-08T12:15:37.032Z,2.20
2022-10-08T12:16:36.882Z,2.10
2022-10-08T12:17:36.883Z,2.10
2022-10-08T12:18:36.917Z,2.30
2022-10-08T12:19:36.847Z,2.20
2022-10-08T12:20:36.839Z,2.40
2022-10-08T12:21:36.883Z,2.10
2022-10-08T12:22:36.829Z,2.40
2022-10-08T12:23:36.814Z,2.40
2022-10-08T12:24:36.794Z,2.40
2022-10-08T12:25:36.787Z,2.30
2022-10-08T12:26:36.775Z,2.20
2022-10-08T12:27:36.773Z,2.60
2022-10-08T12:28:36.762Z,2.30
2022-10-08T12:29:36.797Z,2.30
2022-10-08T12:30:36.733Z,2.40
2022-10-08T12:31:36.823Z,2.30
2022-10-08T12:32:36.725Z,2.50
2022-10-08T12:33:36.703Z,2.30
2022-10-08T12:34:36.691Z,2.30
2022-10-08T12:35:36.694Z,2.20
2022-10-08T12:36:36.682Z,2.40
2022-10-08T12:37:36.690Z,2.30
2022-10-08T12:38:36.654Z,2.40
2022-10-08T12:39:36.635Z,2.70
2022-10-08T12:40:36.625Z,2.20
2022-10-08T12:41:36.615Z,2.20
2022-10-08T12:42:36.613Z,2.30
2022-10-08T12:43:36.604Z,2.20
2022-10-08T12:44:36.582Z,2.20
2022-10-08T12:45:36.571Z,2.50
2022-10-08T12:46:36.639Z,2.00
2022-10-08T12:47:36.615Z,2.30
2022-10-08T12:48:36.538Z,2.10
2022-10-08T12:49:36.543Z,2.20
2022-10-08T12:50:36.517Z,2.20
2022-10-08T12:51:36.510Z,2.00
2022-10-08T12:52:36.524Z,2.40
2022-10-08T12:53:36.537Z,2.30
2022-10-08T12:54:36.477Z,2.20
2022-10-08T12:55:38.189Z,2.30
2022-10-08T12:56:36.457Z,2.00
2022-10-08T12:57:36.456Z,2.20
2022-10-08T12:58:36.437Z,2.30
2022-10-08T12:59:36.479Z,2.40
2022-10-08T13:00:36.446Z,2.20
2022-10-08T13:01:36.451Z,2.50
2022-10-08T13:02:36.386Z,2.00
2022-10-08T13:03:36.404Z,2.10
2022-10-08T13:04:36.374Z,2.30
2022-10-08T13:05:36.364Z,2.30
2022-10-08T13:06:36.345Z,2.40
2022-10-08T13:07:36.336Z,2.30
2022-10-08T13:08:36.324Z,2.40
2022-10-08T13:09:36.348Z,2.50
2022-10-08T13:10:36.310Z,2.10
2022-10-08T13:11:36.344Z,2.60
2022-10-08T13:12:36.286Z,3.00
2022-10-08T13:13:36.267Z,3.50
2022-10-08T13:14:36.261Z,2.90
2022-10-08T13:15:36.259Z,7.00
2022-10-08T13:16:36.241Z,6.60
2022-10-08T13:17:36.234Z,2.60
2022-10-08T13:18:36.228Z,2.40